Time,TemperatureF,DewpointF,PressureIn,WindDirection,WindDirectionDegrees,WindSpeedMPH,WindSpeedGustMPH,Humidity,HourlyPrecipIn,Conditions,Clouds,dailyrainin,SoftwareType,DateUTC
2013-05-09 00:04:00,55.6,46.3,29.97,South,180,0.0,0.0,71,0.00,,---,0.00,VWS V14.01,2013-05-09 07:04:00,
2013-05-09 00:09:00,55.6,46.7,29.97,SSE,158,0.0,0.0,72,0.00,,---,0.00,VWS V14.01,2013-05-09 07:09:00,
2013-05-09 00:15:00,55.4,46.9,29.97,SE,135,0.0,0.0,73,0.00,,---,0.00,VWS V14.01,2013-05-09 07:15:00,
2013-05-09 00:20:00,55.4,46.9,29.97,SSE,158,2.9,2.9,73,0.00,,---,0.00,VWS V14.01,2013-05-09 07:20:00,
2013-05-09 00:25:00,55.2,46.7,29.97,South,180,0.0,0.0,73,0.00,,---,0.00,VWS V14.01,2013-05-09 07:25:00,
2013-05-09 00:30:00,55.0,46.5,29.97,SSE,158,0.0,0.9,73,0.00,,---,0.00,VWS V14.01,2013-05-09 07:30:00,
2013-05-09 00:35:00,54.7,46.2,29.97,SSE,158,0.0,0.0,73,0.00,,---,0.00,VWS V14.01,2013-05-09 07:35:00,
2013-05-09 00:40:00,54.5,46.0,29.97,WSW,248,0.0,0.0,73,0.00,,---,0.00,VWS V14.01,2013-05-09 07:40:00,
2013-05-09 00:45:00,54.5,46.4,29.97,SE,135,0.0,0.0,74,0.00,,---,0.00,VWS V14.01,2013-05-09 07:45:00,
2013-05-09 00:50:00,54.3,46.2,29.97,SSE,158,0.0,0.0,74,0.00,,---,0.00,VWS V14.01,2013-05-09 07:50:00,
2013-05-09 00:55:00,54.3,46.6,29.97,SSE,158,0.0,0.0,75,0.00,,---,0.00,VWS V14.01,2013-05-09 07:55:00,
2013-05-09 01:00:00,54.1,46.8,29.97,SE,135,1.6,2.7,76,0.00,,---,0.00,VWS V14.01,2013-05-09 08:00:00,
2013-05-09 01:05:00,54.1,46.4,29.97,East,90,0.0,0.9,75,0.00,,---,0.00,VWS V14.01,2013-05-09 08:05:00,
2013-05-09 01:10:00,54.0,46.6,29.97,South,180,0.9,1.3,76,0.00,,---,0.00,VWS V14.01,2013-05-09 08:10:00,
2013-05-09 01:15:00,54.1,47.1,29.97,SSW,202,1.1,2.5,77,0.00,,---,0.00,VWS V14.01,2013-05-09 08:15:00,
2013-05-09 01:20:00,54.0,46.9,29.97,ENE,68,0.0,2.9,77,0.00,,---,0.00,VWS V14.01,2013-05-09 08:20:00,
2013-05-09 01:25:00,54.0,47.3,29.97,SSE,158,2.2,2.2,78,0.00,,---,0.00,VWS V14.01,2013-05-09 08:25:00,
2013-05-09 01:30:00,54.0,47.3,29.97,SE,135,0.9,2.5,78,0.00,,---,0.00,VWS V14.01,2013-05-09 08:30:00,
2013-05-09 01:35:00,53.8,46.8,29.97,South,180,2.7,2.7,77,0.00,,---,0.00,VWS V14.01,2013-05-09 08:35:00,
2013-05-09 01:40:00,53.8,47.1,29.97,SSE,158,0.0,0.0,78,0.00,,---,0.00,VWS V14.01,2013-05-09 08:40:00,
2013-05-09 01:45:00,53.6,46.9,29.97,SSW,202,0.0,0.9,78,0.00,,---,0.00,VWS V14.01,2013-05-09 08:45:00,
2013-05-09 01:50:00,53.6,46.9,29.97,SSE,158,1.6,1.6,78,0.00,,---,0.00,VWS V14.01,2013-05-09 08:50:00,
2013-05-09 01:55:00,53.6,47.6,29.97,SSE,158,0.0,1.1,80,0.00,,---,0.00,VWS V14.01,2013-05-09 08:55:00,
2013-05-09 02:00:00,53.6,47.3,29.97,SSE,158,0.0,1.1,79,0.00,,---,0.00,VWS V14.01,2013-05-09 09:00:00,
2013-05-09 02:05:00,53.6,47.3,29.97,SSE,158,2.7,2.7,79,0.00,,---,0.00,VWS V14.01,2013-05-09 09:05:00,
2013-05-09 02:10:00,53.6,47.6,29.97,SSW,202,2.0,3.1,80,0.00,,---,0.00,VWS V14.01,2013-05-09 09:10:00,
2013-05-09 02:15:00,53.6,47.6,29.97,SSE,158,1.3,2.5,80,0.00,,---,0.00,VWS V14.01,2013-05-09 09:15:00,
2013-05-09 02:20:00,53.8,48.8,29.97,SSW,202,2.0,2.9,83,0.00,,---,0.00,VWS V14.01,2013-05-09 09:20:00,
2013-05-09 02:26:00,53.8,48.8,29.97,SSW,202,2.0,2.0,83,0.00,,---,0.00,VWS V14.01,2013-05-09 09:26:00,
2013-05-09 02:31:00,53.8,48.4,29.97,SSW,202,1.6,3.1,82,0.00,,---,0.00,VWS V14.01,2013-05-09 09:31:00,
2013-05-09 02:36:00,53.8,48.4,29.97,ESE,112,3.4,3.4,82,0.00,,---,0.00,VWS V14.01,2013-05-09 09:36:00,
2013-05-09 02:41:00,53.8,48.4,29.97,SSE,158,1.6,1.6,82,0.00,,---,0.00,VWS V14.01,2013-05-09 09:41:00,
2013-05-09 02:46:00,53.6,48.6,29.97,SSE,158,2.5,2.5,83,0.00,,---,0.00,VWS V14.01,2013-05-09 09:46:00,
2013-05-09 02:51:00,53.4,48.1,29.97,East,90,2.2,2.7,82,0.00,,---,0.00,VWS V14.01,2013-05-09 09:51:00,
2013-05-09 02:56:00,53.4,48.1,29.97,SE,135,2.2,2.9,82,0.00,,---,0.00,VWS V14.01,2013-05-09 09:56:00,
2013-05-09 03:01:00,53.1,47.4,29.97,SSE,158,0.0,0.0,81,0.00,,---,0.00,VWS V14.01,2013-05-09 10:01:00,
2013-05-09 03:06:00,53.1,47.7,29.97,SE,135,2.0,2.2,82,0.00,,---,0.00,VWS V14.01,2013-05-09 10:06:00,
2013-05-09 03:11:00,53.1,47.7,29.97,West,270,0.0,0.0,82,0.00,,---,0.00,VWS V14.01,2013-05-09 10:11:00,
2013-05-09 03:16:00,53.1,47.7,29.97,South,180,2.7,2.7,82,0.00,,---,0.00,VWS V14.01,2013-05-09 10:16:00,
2013-05-09 03:21:00,52.9,47.5,29.97,South,180,1.6,2.5,82,0.00,,---,0.00,VWS V14.01,2013-05-09 10:21:00,
2013-05-09 03:26:00,52.9,47.5,29.97,SE,135,0.0,0.0,82,0.00,,---,0.00,VWS V14.01,2013-05-09 10:26:00,
2013-05-09 03:31:00,52.7,47.4,29.97,SE,135,0.0,0.0,82,0.00,,---,0.00,VWS V14.01,2013-05-09 10:31:00,
2013-05-09 03:36:00,52.5,47.5,29.97,South,180,0.0,0.0,83,0.00,,---,0.00,VWS V14.01,2013-05-09 10:36:00,
2013-05-09 03:41:00,52.3,47.0,29.97,South,180,0.0,0.9,82,0.00,,---,0.00,VWS V14.01,2013-05-09 10:41:00,
2013-05-09 03:46:00,52.3,47.0,29.97,North,0,0.0,0.9,82,0.00,,---,0.00,VWS V14.01,2013-05-09 10:46:00,
2013-05-09 03:51:00,52.2,47.2,29.97,South,180,0.0,0.0,83,0.00,,---,0.00,VWS V14.01,2013-05-09 10:51:00,
2013-05-09 03:56:00,52.0,47.0,29.97,SE,135,0.0,0.0,83,0.00,,---,0.00,VWS V14.01,2013-05-09 10:56:00,
2013-05-09 04:01:00,52.0,47.0,29.97,SSE,158,1.1,1.1,83,0.00,,---,0.00,VWS V14.01,2013-05-09 11:01:00,
2013-05-09 04:06:00,51.8,46.8,29.97,SSE,158,1.1,1.1,83,0.00,,---,0.00,VWS V14.01,2013-05-09 11:06:00,
2013-05-09 04:11:00,51.8,46.8,29.97,SE,135,0.0,0.0,83,0.00,,---,0.00,VWS V14.01,2013-05-09 11:11:00,
2013-05-09 04:16:00,51.8,47.1,29.97,East,90,0.0,0.0,84,0.00,,---,0.00,VWS V14.01,2013-05-09 11:16:00,
2013-05-09 04:21:00,51.8,47.1,29.97,WSW,248,0.0,0.0,84,0.00,,---,0.00,VWS V14.01,2013-05-09 11:21:00,
2013-05-09 04:26:00,51.8,47.1,29.97,SE,135,0.0,0.9,84,0.00,,---,0.00,VWS V14.01,2013-05-09 11:26:00,
2013-05-09 04:31:00,51.8,47.1,29.97,SE,135,0.0,0.0,84,0.00,,---,0.00,VWS V14.01,2013-05-09 11:31:00,
2013-05-09 04:36:00,51.8,47.1,29.97,SSE,158,1.6,1.6,84,0.00,,---,0.00,VWS V14.01,2013-05-09 11:36:00,
2013-05-09 04:41:00,52.0,47.6,29.97,SSE,158,1.3,1.3,85,0.00,,---,0.00,VWS V14.01,2013-05-09 11:41:00,
2013-05-09 04:47:00,51.8,47.4,29.97,SSE,158,1.1,1.1,85,0.00,,---,0.00,VWS V14.01,2013-05-09 11:47:00,
2013-05-09 04:52:00,51.8,47.4,29.97,South,180,0.0,0.0,85,0.00,,---,0.00,VWS V14.01,2013-05-09 11:52:00,
2013-05-09 04:57:00,51.8,47.4,29.97,SSE,158,0.0,0.0,85,0.00,,---,0.00,VWS V14.01,2013-05-09 11:57:00,
2013-05-09 05:02:00,51.6,47.3,29.97,SE,135,0.0,0.0,85,0.00,,---,0.00,VWS V14.01,2013-05-09 12:02:00,
2013-05-09 05:07:00,51.4,47.1,29.97,SE,135,0.0,0.0,85,0.00,,---,0.00,VWS V14.01,2013-05-09 12:07:00,
2013-05-09 05:12:00,51.3,46.9,29.97,ESE,112,0.0,0.0,85,0.00,,---,0.00,VWS V14.01,2013-05-09 12:12:00,
2013-05-09 05:17:00,51.3,46.9,29.97,ESE,112,0.0,0.0,85,0.00,,---,0.00,VWS V14.01,2013-05-09 12:17:00,
2013-05-09 05:22:00,51.3,47.2,29.97,SSW,202,0.0,0.0,86,0.00,,---,0.00,VWS V14.01,2013-05-09 12:22:00,
2013-05-09 05:27:00,51.3,47.2,29.97,ESE,112,0.0,0.0,86,0.00,,---,0.00,VWS V14.01,2013-05-09 12:27:00,
2013-05-09 05:32:00,51.1,47.0,29.97,South,180,0.0,0.0,86,0.00,,---,0.00,VWS V14.01,2013-05-09 12:32:00,
2013-05-09 05:37:00,51.1,47.0,29.97,ESE,112,0.0,0.0,86,0.00,,---,0.00,VWS V14.01,2013-05-09 12:37:00,
2013-05-09 05:42:00,51.1,47.0,30.00,NE,45,0.0,0.0,86,0.00,,---,0.00,VWS V14.01,2013-05-09 12:42:00,
2013-05-09 05:47:00,51.1,47.3,30.00,NNE,22,1.1,1.1,87,0.00,,---,0.00,VWS V14.01,2013-05-09 12:47:00,
2013-05-09 05:52:00,51.1,47.3,30.00,SE,135,0.0,0.0,87,0.00,,---,0.00,VWS V14.01,2013-05-09 12:52:00,
2013-05-09 05:57:00,51.3,47.8,29.97,WNW,292,0.0,1.3,88,0.00,,---,0.00,VWS V14.01,2013-05-09 12:57:00,
2013-05-09 06:02:00,51.1,47.7,29.97,SSE,158,0.0,0.0,88,0.00,,---,0.00,VWS V14.01,2013-05-09 13:02:00,
2013-05-09 06:07:00,51.1,47.7,29.97,NW,315,0.0,0.9,88,0.00,,---,0.00,VWS V14.01,2013-05-09 13:07:00,
2013-05-09 06:12:00,51.3,47.8,30.00,NNW,338,0.0,0.0,88,0.00,,---,0.00,VWS V14.01,2013-05-09 13:12:00,
2013-05-09 06:17:00,51.3,48.1,30.00,NNE,22,0.0,0.0,89,0.00,,---,0.00,VWS V14.01,2013-05-09 13:17:00,
2013-05-09 06:22:00,51.4,48.3,30.00,NNE,22,0.0,0.0,89,0.00,,---,0.00,VWS V14.01,2013-05-09 13:22:00,
2013-05-09 06:27:00,51.4,48.3,30.00,ESE,112,0.0,2.0,89,0.00,,---,0.00,VWS V14.01,2013-05-09 13:27:00,
2013-05-09 06:32:00,51.6,48.2,30.00,West,270,0.0,0.0,88,0.00,,---,0.00,VWS V14.01,2013-05-09 13:32:00,
2013-05-09 06:37:00,51.8,48.4,30.00,SSW,202,0.0,0.0,88,0.00,,---,0.00,VWS V14.01,2013-05-09 13:37:00,
2013-05-09 06:42:00,52.0,48.5,30.00,SE,135,0.0,0.0,88,0.00,,---,0.00,VWS V14.01,2013-05-09 13:42:00,
2013-05-09 06:47:00,52.2,48.7,30.00,SE,135,0.0,0.0,88,0.00,,---,0.00,VWS V14.01,2013-05-09 13:47:00,
2013-05-09 06:52:00,52.5,49.1,30.00,SSW,202,0.0,0.9,88,0.00,,---,0.00,VWS V14.01,2013-05-09 13:52:00,
2013-05-09 06:58:00,52.9,49.4,30.03,SE,135,1.6,1.6,88,0.00,,---,0.00,VWS V14.01,2013-05-09 13:58:00,
2013-05-09 07:02:00,53.2,49.5,30.03,SSE,158,1.1,1.1,87,0.00,,---,0.00,VWS V14.01,2013-05-09 14:02:00,
2013-05-09 07:08:00,53.8,49.7,30.03,South,180,4.0,4.0,86,0.00,,---,0.00,VWS V14.01,2013-05-09 14:08:00,
2013-05-09 07:13:00,54.5,50.4,30.03,SSW,202,0.0,0.0,86,0.00,,---,0.00,VWS V14.01,2013-05-09 14:13:00,
2013-05-09 07:18:00,55.9,51.5,30.03,East,90,0.9,0.9,85,0.00,,---,0.00,VWS V14.01,2013-05-09 14:18:00,
2013-05-09 07:23:00,57.0,51.6,30.03,SSE,158,0.9,1.3,82,0.00,,---,0.00,VWS V14.01,2013-05-09 14:23:00,
2013-05-09 07:28:00,57.9,51.5,30.03,ESE,112,2.0,2.0,79,0.00,,---,0.00,VWS V14.01,2013-05-09 14:28:00,
2013-05-09 07:33:00,58.8,51.6,30.03,SSE,158,1.1,1.1,77,0.00,,---,0.00,VWS V14.01,2013-05-09 14:33:00,
2013-05-09 07:38:00,59.7,51.1,30.03,ESE,112,1.3,1.3,73,0.00,,---,0.00,VWS V14.01,2013-05-09 14:38:00,
2013-05-09 07:43:00,60.3,51.2,30.03,SSE,158,0.0,0.0,72,0.00,,---,0.00,VWS V14.01,2013-05-09 14:43:00,
2013-05-09 07:48:00,60.6,50.0,30.03,NNE,22,3.4,3.4,68,0.00,,---,0.00,VWS V14.01,2013-05-09 14:48:00,
2013-05-09 07:53:00,60.4,49.0,30.03,East,90,1.6,1.6,66,0.00,,---,0.00,VWS V14.01,2013-05-09 14:53:00,
2013-05-09 07:58:00,60.4,49.0,30.03,South,180,0.0,1.3,66,0.00,,---,0.00,VWS V14.01,2013-05-09 14:58:00,
2013-05-09 08:03:00,60.1,48.3,30.03,ESE,112,1.1,2.0,65,0.00,,---,0.00,VWS V14.01,2013-05-09 15:03:00,
2013-05-09 08:08:00,60.3,48.9,30.03,South,180,2.0,2.0,66,0.00,,---,0.00,VWS V14.01,2013-05-09 15:08:00,
2013-05-09 08:13:00,59.9,48.1,30.03,SSE,158,2.5,2.5,65,0.00,,---,0.00,VWS V14.01,2013-05-09 15:13:00,
2013-05-09 08:18:00,59.7,48.4,30.03,SSW,202,4.3,4.3,66,0.00,,---,0.00,VWS V14.01,2013-05-09 15:18:00,
2013-05-09 08:23:00,60.1,48.7,30.03,West,270,1.3,2.0,66,0.00,,---,0.00,VWS V14.01,2013-05-09 15:23:00,
2013-05-09 08:28:00,61.0,50.0,30.00,ESE,112,0.0,0.9,67,0.00,,---,0.00,VWS V14.01,2013-05-09 15:28:00,
2013-05-09 08:33:00,62.1,48.9,30.00,South,180,6.5,6.5,62,0.00,,---,0.00,VWS V14.01,2013-05-09 15:33:00,
2013-05-09 08:38:00,62.1,48.9,30.00,SSW,202,2.5,5.4,62,0.00,,---,0.00,VWS V14.01,2013-05-09 15:38:00,
2013-05-09 08:43:00,63.7,50.4,30.00,ESE,112,1.3,2.7,62,0.00,,---,0.00,VWS V14.01,2013-05-09 15:43:00,
2013-05-09 08:48:00,64.4,49.8,30.00,SE,135,2.9,2.9,59,0.00,,---,0.00,VWS V14.01,2013-05-09 15:48:00,
2013-05-09 08:53:00,64.2,47.7,30.00,SW,225,3.6,4.0,55,0.00,,---,0.00,VWS V14.01,2013-05-09 15:53:00,
2013-05-09 08:58:00,65.1,48.1,30.00,SE,135,2.5,2.9,54,0.00,,---,0.00,VWS V14.01,2013-05-09 15:58:00,
2013-05-09 09:03:00,66.6,49.9,30.00,WSW,248,1.6,2.0,55,0.00,,---,0.00,VWS V14.01,2013-05-09 16:03:00,
2013-05-09 09:08:00,66.9,48.7,30.00,South,180,1.6,1.6,52,0.00,,---,0.00,VWS V14.01,2013-05-09 16:08:00,
2013-05-09 09:13:00,67.6,48.9,30.03,South,180,3.4,3.4,51,0.00,,---,0.00,VWS V14.01,2013-05-09 16:13:00,
2013-05-09 09:19:00,68.0,49.2,30.03,SE,135,2.0,2.0,51,0.00,,---,0.00,VWS V14.01,2013-05-09 16:19:00,
2013-05-09 09:24:00,68.0,46.5,30.03,SSW,202,2.9,3.4,46,0.00,,---,0.00,VWS V14.01,2013-05-09 16:24:00,
2013-05-09 09:29:00,68.5,48.1,30.00,SSE,158,2.0,2.0,48,0.00,,---,0.00,VWS V14.01,2013-05-09 16:29:00,
2013-05-09 09:34:00,68.9,48.4,30.00,South,180,0.9,1.3,48,0.00,,---,0.00,VWS V14.01,2013-05-09 16:34:00,
2013-05-09 09:39:00,69.3,47.0,30.00,SE,135,2.5,2.5,45,0.00,,---,0.00,VWS V14.01,2013-05-09 16:39:00,
2013-05-09 09:44:00,70.0,47.7,30.00,SE,135,0.0,0.0,45,0.00,,---,0.00,VWS V14.01,2013-05-09 16:44:00,
2013-05-09 09:49:00,70.7,48.3,30.00,South,180,2.5,3.8,45,0.00,,---,0.00,VWS V14.01,2013-05-09 16:49:00,
2013-05-09 09:54:00,71.1,48.1,30.00,WNW,292,4.0,4.0,44,0.00,,---,0.00,VWS V14.01,2013-05-09 16:54:00,
2013-05-09 09:59:00,71.4,48.4,29.97,ESE,112,1.1,2.0,44,0.00,,---,0.00,VWS V14.01,2013-05-09 16:59:00,
2013-05-09 10:04:00,71.8,48.1,29.97,South,180,2.7,4.0,43,0.00,,---,0.00,VWS V14.01,2013-05-09 17:04:00,
2013-05-09 10:09:00,71.4,47.2,29.97,SSW,202,2.7,3.6,42,0.00,,---,0.00,VWS V14.01,2013-05-09 17:09:00,
2013-05-09 10:14:00,72.1,48.4,29.97,SSE,158,3.4,3.4,43,0.00,,---,0.00,VWS V14.01,2013-05-09 17:14:00,
2013-05-09 10:19:00,72.3,48.0,29.97,South,180,3.1,6.0,42,0.00,,---,0.00,VWS V14.01,2013-05-09 17:19:00,
2013-05-09 10:24:00,72.5,48.1,29.97,NNW,338,3.1,3.1,42,0.00,,---,0.00,VWS V14.01,2013-05-09 17:24:00,
2013-05-09 10:29:00,72.1,47.8,29.97,SSW,202,2.5,2.5,42,0.00,,---,0.00,VWS V14.01,2013-05-09 17:29:00,
2013-05-09 10:34:00,73.9,49.4,29.97,ENE,68,1.3,3.1,42,0.00,,---,0.00,VWS V14.01,2013-05-09 17:34:00,
2013-05-09 10:39:00,75.0,49.1,29.97,North,0,2.5,4.0,40,0.00,,---,0.00,VWS V14.01,2013-05-09 17:39:00,
2013-05-09 10:44:00,75.6,49.6,29.97,SSE,158,2.7,3.6,40,0.00,,---,0.00,VWS V14.01,2013-05-09 17:44:00,
2013-05-09 10:49:00,75.9,49.9,29.97,SW,225,2.5,2.5,40,0.00,,---,0.00,VWS V14.01,2013-05-09 17:49:00,
2013-05-09 10:54:00,75.7,48.4,29.97,NW,315,2.7,4.5,38,0.00,,---,0.00,VWS V14.01,2013-05-09 17:54:00,
2013-05-09 10:59:00,76.3,48.1,29.97,South,180,3.1,3.1,37,0.00,,---,0.00,VWS V14.01,2013-05-09 17:59:00,
2013-05-09 11:04:00,76.5,47.5,29.97,South,180,2.9,6.3,36,0.00,,---,0.00,VWS V14.01,2013-05-09 18:04:00,
2013-05-09 11:09:00,77.4,49.1,29.97,NNE,22,1.3,2.2,37,0.00,,---,0.00,VWS V14.01,2013-05-09 18:09:00,
2013-05-09 11:14:00,77.7,47.9,29.97,South,180,0.0,0.0,35,0.00,,---,0.00,VWS V14.01,2013-05-09 18:14:00,
2013-05-09 11:19:00,79.3,49.3,29.97,SSE,158,3.1,3.1,35,0.00,,---,0.00,VWS V14.01,2013-05-09 18:19:00,
2013-05-09 11:24:00,79.7,48.9,29.94,SW,225,4.9,4.9,34,0.00,,---,0.00,VWS V14.01,2013-05-09 18:24:00,
2013-05-09 11:29:00,79.2,47.6,29.94,NNW,338,3.4,5.4,33,0.00,,---,0.00,VWS V14.01,2013-05-09 18:29:00,
2013-05-09 11:34:00,79.0,46.6,29.94,ENE,68,1.6,5.6,32,0.00,,---,0.00,VWS V14.01,2013-05-09 18:34:00,
2013-05-09 11:39:00,80.1,47.6,29.97,SW,225,0.9,2.7,32,0.00,,---,0.00,VWS V14.01,2013-05-09 18:39:00,
2013-05-09 11:44:00,80.4,47.9,29.97,East,90,2.7,2.9,32,0.00,,---,0.00,VWS V14.01,2013-05-09 18:44:00,
2013-05-09 11:49:00,81.1,49.3,29.97,SE,135,1.1,1.1,33,0.00,,---,0.00,VWS V14.01,2013-05-09 18:49:00,
2013-05-09 11:54:00,80.4,47.9,29.97,South,180,3.6,3.6,32,0.00,,---,0.00,VWS V14.01,2013-05-09 18:54:00,
2013-05-09 11:59:00,81.3,48.7,29.97,South,180,3.8,3.8,32,0.00,,---,0.00,VWS V14.01,2013-05-09 18:59:00,
2013-05-09 12:05:00,81.3,47.8,29.97,WSW,248,2.2,2.2,31,0.00,,---,0.00,VWS V14.01,2013-05-09 19:05:00,
2013-05-09 12:10:00,82.0,48.5,29.97,WSW,248,2.5,2.5,31,0.00,,---,0.00,VWS V14.01,2013-05-09 19:10:00,
2013-05-09 12:15:00,82.6,48.0,29.97,SE,135,2.7,2.7,30,0.00,,---,0.00,VWS V14.01,2013-05-09 19:15:00,
2013-05-09 12:20:00,83.1,48.5,29.97,WNW,292,2.7,4.9,30,0.00,,---,0.00,VWS V14.01,2013-05-09 19:20:00,
2013-05-09 12:25:00,81.9,47.4,29.97,NW,315,4.9,4.9,30,0.00,,---,0.00,VWS V14.01,2013-05-09 19:25:00,
2013-05-09 12:30:00,82.4,48.8,29.97,NE,45,2.2,2.2,31,0.00,,---,0.00,VWS V14.01,2013-05-09 19:30:00,
2013-05-09 12:35:00,82.9,48.3,29.97,NNW,338,2.0,2.9,30,0.00,,---,0.00,VWS V14.01,2013-05-09 19:35:00,
2013-05-09 12:40:00,82.8,48.2,29.97,WSW,248,3.4,4.9,30,0.00,,---,0.00,VWS V14.01,2013-05-09 19:40:00,
2013-05-09 12:45:00,82.6,48.0,29.97,NNW,338,4.3,6.3,30,0.00,,---,0.00,VWS V14.01,2013-05-09 19:45:00,
2013-05-09 12:50:00,84.0,50.2,29.97,WNW,292,2.7,2.7,31,0.00,,---,0.00,VWS V14.01,2013-05-09 19:50:00,
2013-05-09 12:55:00,82.6,48.0,29.94,WSW,248,3.6,5.8,30,0.00,,---,0.00,VWS V14.01,2013-05-09 19:55:00,
2013-05-09 13:00:00,83.7,49.0,29.94,NNW,338,3.4,3.4,30,0.00,,---,0.00,VWS V14.01,2013-05-09 20:00:00,
2013-05-09 13:05:00,84.4,49.6,29.94,West,270,2.7,3.1,30,0.00,,---,0.00,VWS V14.01,2013-05-09 20:05:00,
2013-05-09 13:10:00,83.8,49.1,29.94,West,270,3.6,3.6,30,0.00,,---,0.00,VWS V14.01,2013-05-09 20:10:00,
2013-05-09 13:15:00,84.6,48.8,29.94,SW,225,3.8,4.7,29,0.00,,---,0.00,VWS V14.01,2013-05-09 20:15:00,
2013-05-09 13:20:00,85.3,49.5,29.94,WSW,248,0.0,3.1,29,0.00,,---,0.00,VWS V14.01,2013-05-09 20:20:00,
2013-05-09 13:25:00,86.5,50.5,29.94,WNW,292,2.5,3.8,29,0.00,,---,0.00,VWS V14.01,2013-05-09 20:25:00,
2013-05-09 13:30:00,85.5,49.6,29.94,North,0,1.1,2.2,29,0.00,,---,0.00,VWS V14.01,2013-05-09 20:30:00,
2013-05-09 13:35:00,86.7,50.7,29.94,South,180,2.5,3.6,29,0.00,,---,0.00,VWS V14.01,2013-05-09 20:35:00,
2013-05-09 13:40:00,86.2,50.2,29.94,North,0,3.6,3.6,29,0.00,,---,0.00,VWS V14.01,2013-05-09 20:40:00,
2013-05-09 13:45:00,86.4,49.4,29.94,NE,45,3.8,4.3,28,0.00,,---,0.00,VWS V14.01,2013-05-09 20:45:00,
2013-05-09 13:50:00,85.5,49.6,29.94,NNW,338,3.6,3.8,29,0.00,,---,0.00,VWS V14.01,2013-05-09 20:50:00,
2013-05-09 13:55:00,85.8,49.9,29.91,NNE,22,5.8,7.6,29,0.00,,---,0.00,VWS V14.01,2013-05-09 20:55:00,
2013-05-09 14:00:00,87.3,50.2,29.91,South,180,3.4,5.4,28,0.00,,---,0.00,VWS V14.01,2013-05-09 21:00:00,
2013-05-09 14:05:00,86.7,49.8,29.91,NNW,338,3.4,3.6,28,0.00,,---,0.00,VWS V14.01,2013-05-09 21:05:00,
2013-05-09 14:10:00,87.4,50.4,29.91,North,0,3.8,6.0,28,0.00,,---,0.00,VWS V14.01,2013-05-09 21:10:00,
2013-05-09 14:15:00,87.3,50.2,29.91,NW,315,1.1,2.0,28,0.00,,---,0.00,VWS V14.01,2013-05-09 21:15:00,
2013-05-09 14:20:00,87.4,50.4,29.91,South,180,3.1,3.1,28,0.00,,---,0.00,VWS V14.01,2013-05-09 21:20:00,
2013-05-09 14:25:00,88.2,51.0,29.91,West,270,2.5,2.7,28,0.00,,---,0.00,VWS V14.01,2013-05-09 21:25:00,
2013-05-09 14:30:00,87.6,50.5,29.91,WNW,292,3.4,6.5,28,0.00,,---,0.00,VWS V14.01,2013-05-09 21:30:00,
2013-05-09 14:35:00,88.2,51.0,29.91,WNW,292,2.0,2.7,28,0.00,,---,0.00,VWS V14.01,2013-05-09 21:35:00,
2013-05-09 14:40:00,88.7,49.5,29.88,WSW,248,3.1,3.1,26,0.00,,---,0.00,VWS V14.01,2013-05-09 21:40:00,
2013-05-09 14:45:00,89.2,49.9,29.88,SW,225,2.7,3.6,26,0.00,,---,0.00,VWS V14.01,2013-05-09 21:45:00,
2013-05-09 14:50:00,91.0,51.4,29.88,NNE,22,2.5,2.7,26,0.00,,---,0.00,VWS V14.01,2013-05-09 21:50:00,
2013-05-09 14:55:00,90.3,50.8,29.91,NW,315,3.8,3.8,26,0.00,,---,0.00,VWS V14.01,2013-05-09 21:55:00,
2013-05-09 15:00:00,89.1,48.7,29.91,SSW,202,1.6,4.3,25,0.00,,---,0.00,VWS V14.01,2013-05-09 22:00:00,
2013-05-09 15:05:00,88.9,48.5,29.91,NW,315,0.0,3.4,25,0.00,,---,0.00,VWS V14.01,2013-05-09 22:05:00,
2013-05-09 15:10:00,88.9,48.5,29.91,WNW,292,2.5,5.8,25,0.00,,---,0.00,VWS V14.01,2013-05-09 22:10:00,
2013-05-09 15:15:00,89.6,49.2,29.91,NNW,338,2.5,3.4,25,0.00,,---,0.00,VWS V14.01,2013-05-09 22:15:00,
2013-05-09 15:20:00,90.3,48.7,29.91,NE,45,2.9,2.9,24,0.00,,---,0.00,VWS V14.01,2013-05-09 22:20:00,
2013-05-09 15:25:00,90.5,48.8,29.88,NNW,338,4.3,4.3,24,0.00,,---,0.00,VWS V14.01,2013-05-09 22:25:00,
2013-05-09 15:30:00,88.7,47.3,29.88,WNW,292,4.0,6.0,24,0.00,,---,0.00,VWS V14.01,2013-05-09 22:30:00,
2013-05-09 15:35:00,90.1,50.7,29.88,NE,45,2.5,2.5,26,0.00,,---,0.00,VWS V14.01,2013-05-09 22:35:00,
2013-05-09 15:40:00,90.9,48.0,29.88,South,180,2.7,2.7,23,0.00,,---,0.00,VWS V14.01,2013-05-09 22:40:00,
2013-05-09 15:45:00,90.1,49.6,29.88,ENE,68,2.2,2.2,25,0.00,,---,0.00,VWS V14.01,2013-05-09 22:45:00,
2013-05-09 15:51:00,90.7,47.8,29.88,North,0,2.0,2.7,23,0.00,,---,0.00,VWS V14.01,2013-05-09 22:51:00,
2013-05-09 15:56:00,89.8,45.9,29.85,ENE,68,0.0,2.0,22,0.00,,---,0.00,VWS V14.01,2013-05-09 22:56:00,
2013-05-09 16:01:00,88.7,48.4,29.85,ESE,112,8.5,8.5,25,0.00,,---,0.00,VWS V14.01,2013-05-09 23:01:00,
2013-05-09 16:06:00,88.0,46.7,29.85,South,180,2.0,3.8,24,0.00,,---,0.00,VWS V14.01,2013-05-09 23:06:00,
2013-05-09 16:11:00,88.0,47.8,29.85,NNE,22,2.2,2.5,25,0.00,,---,0.00,VWS V14.01,2013-05-09 23:11:00,
2013-05-09 16:16:00,87.1,47.0,29.85,NNW,338,1.3,2.5,25,0.00,,---,0.00,VWS V14.01,2013-05-09 23:16:00,
2013-05-09 16:21:00,89.4,49.0,29.85,SSE,158,3.6,3.6,25,0.00,,---,0.00,VWS V14.01,2013-05-09 23:21:00,
2013-05-09 16:26:00,90.0,47.2,29.85,NW,315,3.4,3.4,23,0.00,,---,0.00,VWS V14.01,2013-05-09 23:26:00,
2013-05-09 16:31:00,89.2,46.6,29.85,WSW,248,3.8,3.8,23,0.00,,---,0.00,VWS V14.01,2013-05-09 23:31:00,
2013-05-09 16:36:00,88.7,46.2,29.85,South,180,3.4,3.6,23,0.00,,---,0.00,VWS V14.01,2013-05-09 23:36:00,
2013-05-09 16:41:00,88.0,47.8,29.85,WSW,248,5.4,5.4,25,0.00,,---,0.00,VWS V14.01,2013-05-09 23:41:00,
2013-05-09 16:46:00,86.5,49.6,29.85,South,180,5.6,11.0,28,0.00,,---,0.00,VWS V14.01,2013-05-09 23:46:00,
2013-05-09 16:51:00,84.9,49.2,29.85,ESE,112,3.6,6.3,29,0.00,,---,0.00,VWS V14.01,2013-05-09 23:51:00,
2013-05-09 16:56:00,84.9,49.2,29.85,South,180,4.3,4.9,29,0.00,,---,0.00,VWS V14.01,2013-05-09 23:56:00,
2013-05-09 17:01:00,84.0,49.3,29.85,SSW,202,6.3,6.3,30,0.00,,---,0.00,VWS V14.01,2013-05-10 00:01:00,
2013-05-09 17:06:00,83.5,48.8,29.85,SW,225,6.5,6.5,30,0.00,,---,0.00,VWS V14.01,2013-05-10 00:06:00,
2013-05-09 17:11:00,84.0,49.3,29.88,South,180,7.6,7.6,30,0.00,,---,0.00,VWS V14.01,2013-05-10 00:11:00,
2013-05-09 17:16:00,84.0,49.3,29.88,South,180,6.0,6.0,30,0.00,,---,0.00,VWS V14.01,2013-05-10 00:16:00,
2013-05-09 17:21:00,83.1,48.5,29.88,SSW,202,2.5,5.4,30,0.00,,---,0.00,VWS V14.01,2013-05-10 00:21:00,
2013-05-09 17:26:00,82.6,48.0,29.88,WNW,292,2.7,2.7,30,0.00,,---,0.00,VWS V14.01,2013-05-10 00:26:00,
2013-05-09 17:32:00,82.4,47.9,29.88,South,180,2.7,2.7,30,0.00,,---,0.00,VWS V14.01,2013-05-10 00:32:00,
2013-05-09 17:37:00,81.9,48.3,29.88,SSE,158,4.3,7.2,31,0.00,,---,0.00,VWS V14.01,2013-05-10 00:37:00,
2013-05-09 17:42:00,81.5,48.0,29.85,South,180,5.8,6.3,31,0.00,,---,0.00,VWS V14.01,2013-05-10 00:42:00,
2013-05-09 17:47:00,80.6,47.2,29.85,SSW,202,7.4,7.4,31,0.00,,---,0.00,VWS V14.01,2013-05-10 00:47:00,
2013-05-09 17:52:00,80.8,48.2,29.85,SSW,202,4.9,6.3,32,0.00,,---,0.00,VWS V14.01,2013-05-10 00:52:00,
2013-05-09 17:57:00,80.1,47.6,29.85,SW,225,2.5,3.1,32,0.00,,---,0.00,VWS V14.01,2013-05-10 00:57:00,
2013-05-09 18:02:00,80.2,48.5,29.85,SSE,158,6.0,6.0,33,0.00,,---,0.00,VWS V14.01,2013-05-10 01:02:00,
2013-05-09 18:07:00,79.9,48.2,29.85,SW,225,4.0,4.3,33,0.00,,---,0.00,VWS V14.01,2013-05-10 01:07:00,
2013-05-09 18:12:00,79.2,47.6,29.88,SE,135,2.7,7.4,33,0.00,,---,0.00,VWS V14.01,2013-05-10 01:12:00,
2013-05-09 18:17:00,78.1,47.5,29.88,WSW,248,3.6,5.6,34,0.00,,---,0.00,VWS V14.01,2013-05-10 01:17:00,
2013-05-09 18:22:00,77.4,46.8,29.88,SSW,202,4.3,4.3,34,0.00,,---,0.00,VWS V14.01,2013-05-10 01:22:00,
2013-05-09 18:27:00,76.8,47.1,29.88,SSW,202,5.8,5.8,35,0.00,,---,0.00,VWS V14.01,2013-05-10 01:27:00,
2013-05-09 18:33:00,76.8,47.9,29.88,SSW,202,4.3,4.3,36,0.00,,---,0.00,VWS V14.01,2013-05-10 01:33:00,
2013-05-09 18:38:00,76.3,47.4,29.88,SSW,202,5.6,5.6,36,0.00,,---,0.00,VWS V14.01,2013-05-10 01:38:00,
2013-05-09 18:43:00,76.3,48.1,29.85,South,180,4.3,4.3,37,0.00,,---,0.00,VWS V14.01,2013-05-10 01:43:00,
2013-05-09 18:48:00,75.4,47.3,29.85,South,180,5.8,7.4,37,0.00,,---,0.00,VWS V14.01,2013-05-10 01:48:00,
2013-05-09 18:53:00,74.8,47.6,29.85,SSW,202,3.1,5.6,38,0.00,,---,0.00,VWS V14.01,2013-05-10 01:53:00,
2013-05-09 18:58:00,74.5,48.6,29.85,SW,225,1.6,2.9,40,0.00,,---,0.00,VWS V14.01,2013-05-10 01:58:00,
2013-05-09 19:03:00,74.3,48.4,29.85,South,180,3.6,3.6,40,0.00,,---,0.00,VWS V14.01,2013-05-10 02:03:00,
2013-05-09 19:08:00,73.9,48.1,29.85,South,180,2.9,3.6,40,0.00,,---,0.00,VWS V14.01,2013-05-10 02:08:00,
2013-05-09 19:13:00,73.8,48.6,29.88,ENE,68,3.4,8.1,41,0.00,,---,0.00,VWS V14.01,2013-05-10 02:13:00,
2013-05-09 19:18:00,73.2,48.1,29.88,WNW,292,2.7,3.1,41,0.00,,---,0.00,VWS V14.01,2013-05-10 02:18:00,
2013-05-09 19:23:00,72.7,48.3,29.88,WSW,248,2.9,3.8,42,0.00,,---,0.00,VWS V14.01,2013-05-10 02:23:00,
2013-05-09 19:28:00,72.1,47.8,29.88,SW,225,4.9,4.9,42,0.00,,---,0.00,VWS V14.01,2013-05-10 02:28:00,
2013-05-09 19:33:00,71.8,47.5,29.88,SW,225,3.4,3.8,42,0.00,,---,0.00,VWS V14.01,2013-05-10 02:33:00,
2013-05-09 19:38:00,71.2,47.6,29.88,SSW,202,6.3,6.3,43,0.00,,---,0.00,VWS V14.01,2013-05-10 02:38:00,
2013-05-09 19:43:00,70.9,47.3,29.88,SSW,202,2.0,2.0,43,0.00,,---,0.00,VWS V14.01,2013-05-10 02:43:00,
2013-05-09 19:48:00,70.5,47.6,29.88,SSE,158,3.8,3.8,44,0.00,,---,0.00,VWS V14.01,2013-05-10 02:48:00,
2013-05-09 19:53:00,69.8,46.3,29.88,SW,225,3.1,3.1,43,0.00,,---,0.00,VWS V14.01,2013-05-10 02:53:00,
2013-05-09 19:58:00,69.3,46.4,29.91,SW,225,4.0,4.0,44,0.00,,---,0.00,VWS V14.01,2013-05-10 02:58:00,
2013-05-09 20:04:00,68.9,46.7,29.91,SE,135,3.1,3.4,45,0.00,,---,0.00,VWS V14.01,2013-05-10 03:04:00,
2013-05-09 20:09:00,68.5,46.4,29.91,WSW,248,3.4,6.0,45,0.00,,---,0.00,VWS V14.01,2013-05-10 03:09:00,
2013-05-09 20:14:00,67.8,46.3,29.91,SSW,202,3.6,3.6,46,0.00,,---,0.00,VWS V14.01,2013-05-10 03:14:00,
2013-05-09 20:19:00,67.3,45.8,29.91,South,180,4.0,4.0,46,0.00,,---,0.00,VWS V14.01,2013-05-10 03:19:00,
2013-05-09 20:24:00,67.1,45.7,29.91,SE,135,0.9,2.0,46,0.00,,---,0.00,VWS V14.01,2013-05-10 03:24:00,
2013-05-09 20:29:00,66.6,45.7,29.94,South,180,2.5,3.6,47,0.00,,---,0.00,VWS V14.01,2013-05-10 03:29:00,
2013-05-09 20:34:00,66.2,46.0,29.94,SSE,158,2.0,6.0,48,0.00,,---,0.00,VWS V14.01,2013-05-10 03:34:00,
2013-05-09 20:39:00,65.8,45.6,29.94,South,180,2.0,2.0,48,0.00,,---,0.00,VWS V14.01,2013-05-10 03:39:00,
2013-05-09 20:44:00,65.5,46.4,29.91,SSW,202,4.7,6.0,50,0.00,,---,0.00,VWS V14.01,2013-05-10 03:44:00,
2013-05-09 20:49:00,65.3,46.2,29.91,SSW,202,4.7,4.7,50,0.00,,---,0.00,VWS V14.01,2013-05-10 03:49:00,
2013-05-09 20:54:00,64.9,45.9,29.91,SE,135,2.7,2.9,50,0.00,,---,0.00,VWS V14.01,2013-05-10 03:54:00,
2013-05-09 20:59:00,64.6,46.1,29.91,SSE,158,2.5,3.8,51,0.00,,---,0.00,VWS V14.01,2013-05-10 03:59:00,
2013-05-09 21:01:00,64.6,46.1,29.91,South,180,2.2,2.2,51,0.00,,---,0.00,VWS V14.01,2013-05-10 04:01:00,
2013-05-09 21:02:00,64.4,45.9,29.91,SW,225,2.0,3.1,51,0.00,,---,0.00,VWS V14.01,2013-05-10 04:02:00,
2013-05-09 21:07:00,64.0,46.6,29.91,South,180,2.5,2.5,53,0.00,,---,0.00,VWS V14.01,2013-05-10 04:07:00,
2013-05-09 21:12:00,63.9,45.9,29.94,ESE,112,2.5,4.0,52,0.00,,---,0.00,VWS V14.01,2013-05-10 04:12:00,
2013-05-09 21:18:00,63.5,46.6,29.94,South,180,2.7,2.7,54,0.00,,---,0.00,VWS V14.01,2013-05-10 04:18:00,
2013-05-09 21:23:00,63.3,46.4,29.94,SE,135,1.6,2.5,54,0.00,,---,0.00,VWS V14.01,2013-05-10 04:23:00,
2013-05-09 21:28:00,63.1,46.7,29.94,South,180,1.6,1.6,55,0.00,,---,0.00,VWS V14.01,2013-05-10 04:28:00,
2013-05-09 21:33:00,63.0,46.6,29.94,SSW,202,1.1,1.3,55,0.00,,---,0.00,VWS V14.01,2013-05-10 04:33:00,
2013-05-09 21:38:00,62.6,46.2,29.94,SSE,158,1.6,2.0,55,0.00,,---,0.00,VWS V14.01,2013-05-10 04:38:00,
2013-05-09 21:43:00,62.2,45.9,29.94,SSE,158,0.0,0.0,55,0.00,,---,0.00,VWS V14.01,2013-05-10 04:43:00,
2013-05-09 21:48:00,62.1,47.1,29.94,SSW,202,4.7,4.7,58,0.00,,---,0.00,VWS V14.01,2013-05-10 04:48:00,
2013-05-09 21:53:00,61.9,47.0,29.94,South,180,2.0,2.9,58,0.00,,---,0.00,VWS V14.01,2013-05-10 04:53:00,
2013-05-09 21:58:00,61.7,46.8,29.97,South,180,2.5,2.5,58,0.00,,---,0.00,VWS V14.01,2013-05-10 04:58:00,
2013-05-09 22:03:00,61.7,47.7,29.97,South,180,4.3,4.3,60,0.00,,---,0.00,VWS V14.01,2013-05-10 05:03:00,
2013-05-09 22:08:00,61.3,46.5,29.97,SSE,158,1.3,1.3,58,0.00,,---,0.00,VWS V14.01,2013-05-10 05:08:00,
2013-05-09 22:13:00,61.2,46.7,29.97,South,180,2.0,2.5,59,0.00,,---,0.00,VWS V14.01,2013-05-10 05:13:00,
2013-05-09 22:18:00,61.0,46.6,29.97,SSE,158,0.0,1.6,59,0.00,,---,0.00,VWS V14.01,2013-05-10 05:18:00,
2013-05-09 22:23:00,60.8,46.4,29.97,SSE,158,1.6,1.6,59,0.00,,---,0.00,VWS V14.01,2013-05-10 05:23:00,
2013-05-09 22:28:00,60.6,46.7,29.97,SSW,202,2.0,2.0,60,0.00,,---,0.00,VWS V14.01,2013-05-10 05:28:00,
2013-05-09 22:33:00,60.4,46.9,29.97,SSW,202,2.2,2.7,61,0.00,,---,0.00,VWS V14.01,2013-05-10 05:33:00,
2013-05-09 22:38:00,60.4,46.9,29.97,SE,135,2.5,2.5,61,0.00,,---,0.00,VWS V14.01,2013-05-10 05:38:00,
2013-05-09 22:43:00,60.3,47.6,29.94,ESE,112,2.5,2.7,63,0.00,,---,0.00,VWS V14.01,2013-05-10 05:43:00,
2013-05-09 22:48:00,60.1,47.0,29.94,SSE,158,1.6,2.7,62,0.00,,---,0.00,VWS V14.01,2013-05-10 05:48:00,
2013-05-09 22:53:00,59.9,47.3,29.94,ESE,112,1.1,1.1,63,0.00,,---,0.00,VWS V14.01,2013-05-10 05:53:00,
2013-05-09 22:58:00,59.7,47.1,29.94,South,180,1.6,3.8,63,0.00,,---,0.00,VWS V14.01,2013-05-10 05:58:00,
2013-05-09 23:03:00,59.7,47.5,29.94,SSE,158,0.0,1.6,64,0.00,,---,0.00,VWS V14.01,2013-05-10 06:03:00,
2013-05-09 23:08:00,59.5,47.8,29.94,SE,135,1.6,2.0,65,0.00,,---,0.00,VWS V14.01,2013-05-10 06:08:00,
2013-05-09 23:13:00,59.4,47.6,29.97,SSW,202,1.1,1.6,65,0.00,,---,0.00,VWS V14.01,2013-05-10 06:13:00,
2013-05-09 23:18:00,59.2,48.2,29.97,South,180,0.0,0.0,67,0.00,,---,0.00,VWS V14.01,2013-05-10 06:18:00,
2013-05-09 23:23:00,59.2,48.2,29.97,SSW,202,1.1,1.1,67,0.00,,---,0.00,VWS V14.01,2013-05-10 06:23:00,
2013-05-09 23:28:00,59.0,48.9,29.97,South,180,2.0,3.6,69,0.00,,---,0.00,VWS V14.01,2013-05-10 06:28:00,
2013-05-09 23:33:00,58.8,48.7,29.97,NE,45,1.6,4.3,69,0.00,,---,0.00,VWS V14.01,2013-05-10 06:33:00,
2013-05-09 23:38:00,58.5,48.3,29.97,NNW,338,1.3,1.3,69,0.00,,---,0.00,VWS V14.01,2013-05-10 06:38:00,
2013-05-09 23:43:00,58.5,48.3,30.00,SE,135,1.3,1.3,69,0.00,,---,0.00,VWS V14.01,2013-05-10 06:43:00,
2013-05-09 23:48:00,58.1,48.0,30.00,SE,135,0.0,0.0,69,0.00,,---,0.00,VWS V14.01,2013-05-10 06:48:00,
2013-05-09 23:54:00,57.7,47.3,30.00,SSW,202,1.3,1.3,68,0.00,,---,0.00,VWS V14.01,2013-05-10 06:54:00,
2013-05-09 23:59:00,57.6,47.5,30.00,South,180,0.0,0.0,69,0.00,,---,0.00,VWS V14.01,2013-05-10 06:59:00,